Time,TemperatureF,DewpointF,PressureIn,WindDirection,WindDirectionDegrees,WindSpeedMPH,WindSpeedGustMPH,Humidity,HourlyPrecipIn,Conditions,Clouds,dailyrainin,SoftwareType,DateUTC
2013-04-03 00:00:00,30.2,14.0,29.77,SSW,202,6.3,16.8,47,0.00,,,0.01,Rainwise IP-100,2013-04-03 04:00:00,
2013-04-03 00:01:00,30.3,14.0,29.77,West,270,3.3,16.8,47,0.00,,,0.00,Rainwise IP-100,2013-04-03 04:01:00,
2013-04-03 00:06:00,30.4,14.0,29.77,WNW,292,9.1,21.5,47,0.00,,,0.00,Rainwise IP-100,2013-04-03 04:06:00,
2013-04-03 00:11:00,30.4,14.0,29.77,WNW,292,4.2,21.2,48,0.00,,,0.00,Rainwise IP-100,2013-04-03 04:11:00,
2013-04-03 00:16:00,30.4,14.0,29.78,WNW,292,8.4,19.4,48,0.00,,,0.00,Rainwise IP-100,2013-04-03 04:16:00,
2013-04-03 00:21:00,30.4,14.0,29.77,NNW,337,11.9,18.4,49,0.00,,,0.00,Rainwise IP-100,2013-04-03 04:21:00,
2013-04-03 00:26:00,30.3,14.0,29.78,West,270,5.1,19.8,49,0.00,,,0.00,Rainwise IP-100,2013-04-03 04:26:00,
2013-04-03 00:31:00,30.1,16.0,29.78,West,270,8.2,21.5,50,0.00,,,0.00,Rainwise IP-100,2013-04-03 04:31:00,
2013-04-03 00:36:00,29.9,16.0,29.77,WNW,292,5.1,17.7,52,0.00,,,0.00,Rainwise IP-100,2013-04-03 04:36:00,
2013-04-03 00:41:00,29.7,16.0,29.77,NW,315,6.5,17.7,54,0.00,,,0.00,Rainwise IP-100,2013-04-03 04:41:00,
2013-04-03 00:46:00,29.6,16.0,29.77,WSW,247,8.6,17.0,55,0.00,,,0.00,Rainwise IP-100,2013-04-03 04:46:00,
2013-04-03 00:52:00,29.5,18.0,29.77,WNW,292,9.8,16.8,57,0.00,,,0.00,Rainwise IP-100,2013-04-03 04:52:00,
2013-04-03 00:57:00,29.7,18.0,29.77,WNW,292,9.6,11.4,57,0.00,,,0.00,Rainwise IP-100,2013-04-03 04:57:00,
2013-04-03 01:02:00,29.9,18.0,29.77,WNW,292,4.2,12.8,56,0.00,,,0.00,Rainwise IP-100,2013-04-03 05:02:00,
2013-04-03 01:07:00,30.0,18.0,29.78,WNW,292,5.1,14.2,56,0.00,,,0.00,Rainwise IP-100,2013-04-03 05:07:00,
2013-04-03 01:12:00,30.0,18.0,29.78,WSW,247,11.7,19.4,56,0.00,,,0.00,Rainwise IP-100,2013-04-03 05:12:00,
2013-04-03 01:17:00,29.9,18.0,29.78,WNW,292,5.6,24.0,56,0.00,,,0.00,Rainwise IP-100,2013-04-03 05:17:00,
2013-04-03 01:22:00,29.7,18.0,29.78,West,270,5.6,14.0,58,0.00,,,0.00,Rainwise IP-100,2013-04-03 05:22:00,
2013-04-03 01:27:00,29.5,18.0,29.78,NW,315,15.4,16.6,60,0.00,,,0.00,Rainwise IP-100,2013-04-03 05:27:00,
2013-04-03 01:32:00,29.0,18.0,29.78,WNW,292,4.0,17.7,64,0.00,,,0.00,Rainwise IP-100,2013-04-03 05:32:00,
2013-04-03 01:37:00,28.4,18.0,29.78,WNW,292,3.7,18.9,68,0.00,,,0.00,Rainwise IP-100,2013-04-03 05:37:00,
2013-04-03 01:42:00,28.3,18.0,29.78,NNW,337,5.6,12.4,69,0.00,,,0.00,Rainwise IP-100,2013-04-03 05:42:00,
2013-04-03 01:47:00,28.3,18.0,29.78,WNW,292,4.2,11.2,68,0.00,,,0.00,Rainwise IP-100,2013-04-03 05:47:00,
2013-04-03 01:52:00,28.5,21.0,29.78,NNW,337,4.4,12.6,66,0.00,,,0.00,Rainwise IP-100,2013-04-03 05:52:00,
2013-04-03 01:57:00,28.7,18.0,29.77,WSW,247,8.2,16.3,63,0.00,,,0.00,Rainwise IP-100,2013-04-03 05:57:00,
2013-04-03 02:02:00,28.7,18.0,29.77,NW,315,8.2,14.5,61,0.00,,,0.00,Rainwise IP-100,2013-04-03 06:02:00,
2013-04-03 02:07:00,28.7,18.0,29.77,West,270,3.5,9.8,60,0.00,,,0.00,Rainwise IP-100,2013-04-03 06:07:00,
2013-04-03 02:11:00,28.7,18.0,29.77,WNW,292,8.4,12.1,60,0.00,,,0.00,Rainwise IP-100,2013-04-03 06:11:00,
2013-04-03 02:16:00,28.6,18.0,29.77,SW,225,8.6,13.1,60,0.00,,,0.00,Rainwise IP-100,2013-04-03 06:16:00,
2013-04-03 02:21:00,28.5,18.0,29.77,WSW,247,6.3,13.3,61,0.00,,,0.00,Rainwise IP-100,2013-04-03 06:21:00,
2013-04-03 02:26:00,28.4,16.0,29.78,WNW,292,6.5,16.8,61,0.00,,,0.00,Rainwise IP-100,2013-04-03 06:26:00,
2013-04-03 02:31:00,28.4,16.0,29.78,WNW,292,4.0,14.5,61,0.00,,,0.00,Rainwise IP-100,2013-04-03 06:31:00,
2013-04-03 02:36:00,28.3,16.0,29.77,West,270,6.8,16.6,61,0.00,,,0.00,Rainwise IP-100,2013-04-03 06:36:00,
2013-04-03 02:41:00,28.3,16.0,29.77,WNW,292,10.0,12.4,61,0.00,,,0.00,Rainwise IP-100,2013-04-03 06:41:00,
2013-04-03 02:46:00,28.4,16.0,29.77,WNW,292,6.3,18.4,61,0.00,,,0.00,Rainwise IP-100,2013-04-03 06:46:00,
2013-04-03 02:51:00,28.4,16.0,29.77,NNW,337,3.0,17.5,61,0.00,,,0.00,Rainwise IP-100,2013-04-03 06:51:00,
2013-04-03 02:56:00,28.5,18.0,29.77,South,180,2.3,16.8,60,0.00,,,0.00,Rainwise IP-100,2013-04-03 06:56:00,
2013-04-03 03:01:00,28.4,16.0,29.76,NNW,337,9.6,15.4,60,0.00,,,0.00,Rainwise IP-100,2013-04-03 07:01:00,
2013-04-03 03:06:00,28.4,16.0,29.76,West,270,7.2,15.9,59,0.00,,,0.00,Rainwise IP-100,2013-04-03 07:06:00,
2013-04-03 03:11:00,28.4,16.0,29.77,NW,315,6.3,14.2,59,0.00,,,0.00,Rainwise IP-100,2013-04-03 07:11:00,
2013-04-03 03:16:00,28.4,16.0,29.77,WSW,247,2.8,18.0,58,0.00,,,0.00,Rainwise IP-100,2013-04-03 07:16:00,
2013-04-03 03:22:00,28.6,16.0,29.77,West,270,4.4,19.1,57,0.00,,,0.00,Rainwise IP-100,2013-04-03 07:22:00,
2013-04-03 03:27:00,28.7,16.0,29.78,WNW,292,8.6,14.9,56,0.00,,,0.00,Rainwise IP-100,2013-04-03 07:27:00,
2013-04-03 03:32:00,28.7,16.0,29.77,WSW,247,9.3,24.0,55,0.00,,,0.00,Rainwise IP-100,2013-04-03 07:32:00,
2013-04-03 03:37:00,28.7,16.0,29.77,WSW,247,3.7,15.9,55,0.00,,,0.00,Rainwise IP-100,2013-04-03 07:37:00,
2013-04-03 03:42:00,28.8,16.0,29.78,WNW,292,10.7,10.7,56,0.00,,,0.00,Rainwise IP-100,2013-04-03 07:42:00,
2013-04-03 03:47:00,28.9,16.0,29.77,WNW,292,8.4,14.7,55,0.00,,,0.00,Rainwise IP-100,2013-04-03 07:47:00,
2013-04-03 03:52:00,29.0,16.0,29.76,WSW,247,6.1,22.6,54,0.00,,,0.00,Rainwise IP-100,2013-04-03 07:52:00,
2013-04-03 03:57:00,29.0,16.0,29.77,West,270,6.8,15.6,54,0.00,,,0.00,Rainwise IP-100,2013-04-03 07:57:00,
2013-04-03 04:02:00,29.0,16.0,29.77,WNW,292,6.5,20.1,55,0.00,,,0.00,Rainwise IP-100,2013-04-03 08:02:00,
2013-04-03 04:07:00,28.9,16.0,29.76,WSW,247,6.1,21.7,55,0.00,,,0.00,Rainwise IP-100,2013-04-03 08:07:00,
2013-04-03 04:12:00,28.9,16.0,29.77,WNW,292,9.3,15.4,54,0.00,,,0.00,Rainwise IP-100,2013-04-03 08:12:00,
2013-04-03 04:17:00,29.1,14.0,29.77,WNW,292,7.0,20.3,53,0.00,,,0.00,Rainwise IP-100,2013-04-03 08:17:00,
2013-04-03 04:22:00,29.1,14.0,29.76,WSW,247,8.4,22.2,52,0.00,,,0.00,Rainwise IP-100,2013-04-03 08:22:00,
2013-04-03 04:27:00,29.0,14.0,29.77,WSW,247,6.3,17.0,52,0.00,,,0.00,Rainwise IP-100,2013-04-03 08:27:00,
2013-04-03 04:32:00,29.0,14.0,29.77,WNW,292,6.1,17.7,52,0.00,,,0.00,Rainwise IP-100,2013-04-03 08:32:00,
2013-04-03 04:37:00,28.9,14.0,29.78,WSW,247,13.8,17.7,52,0.00,,,0.00,Rainwise IP-100,2013-04-03 08:37:00,
2013-04-03 04:42:00,28.9,14.0,29.78,WNW,292,5.4,29.1,53,0.00,,,0.00,Rainwise IP-100,2013-04-03 08:42:00,
2013-04-03 04:47:00,28.8,16.0,29.78,West,270,10.0,14.5,54,0.00,,,0.00,Rainwise IP-100,2013-04-03 08:47:00,
2013-04-03 04:52:00,28.7,16.0,29.78,WSW,247,9.8,17.0,54,0.00,,,0.00,Rainwise IP-100,2013-04-03 08:52:00,
2013-04-03 04:57:00,28.6,16.0,29.77,NW,315,5.8,14.7,55,0.00,,,0.00,Rainwise IP-100,2013-04-03 08:57:00,
2013-04-03 05:02:00,28.4,14.0,29.78,West,270,8.9,15.6,55,0.00,,,0.00,Rainwise IP-100,2013-04-03 09:02:00,
2013-04-03 05:07:00,28.3,14.0,29.78,West,270,5.8,14.2,56,0.00,,,0.00,Rainwise IP-100,2013-04-03 09:07:00,
2013-04-03 05:12:00,28.4,14.0,29.78,West,270,3.5,11.0,56,0.00,,,0.00,Rainwise IP-100,2013-04-03 09:12:00,
2013-04-03 05:17:00,28.4,14.0,29.78,WSW,247,10.5,16.6,55,0.00,,,0.00,Rainwise IP-100,2013-04-03 09:17:00,
2013-04-03 05:22:00,28.4,14.0,29.79,West,270,9.1,17.0,55,0.00,,,0.00,Rainwise IP-100,2013-04-03 09:22:00,
2013-04-03 05:27:00,28.5,16.0,29.78,West,270,12.4,15.9,55,0.00,,,0.00,Rainwise IP-100,2013-04-03 09:27:00,
2013-04-03 05:32:00,28.5,16.0,29.78,WSW,247,8.9,26.6,54,0.00,,,0.00,Rainwise IP-100,2013-04-03 09:32:00,
2013-04-03 05:37:00,28.4,14.0,29.78,WSW,247,5.6,19.1,54,0.00,,,0.00,Rainwise IP-100,2013-04-03 09:37:00,
2013-04-03 05:42:00,28.4,14.0,29.78,NNW,337,5.1,15.2,54,0.00,,,0.00,Rainwise IP-100,2013-04-03 09:42:00,
2013-04-03 05:47:00,28.4,14.0,29.78,West,270,2.1,17.0,54,0.00,,,0.00,Rainwise IP-100,2013-04-03 09:47:00,
2013-04-03 05:52:00,28.5,16.0,29.78,WNW,292,7.5,20.1,55,0.00,,,0.00,Rainwise IP-100,2013-04-03 09:52:00,
2013-04-03 05:57:00,28.6,16.0,29.79,WSW,247,5.4,17.0,55,0.00,,,0.00,Rainwise IP-100,2013-04-03 09:57:00,
2013-04-03 06:02:00,28.7,16.0,29.79,WSW,247,7.7,19.8,54,0.00,,,0.00,Rainwise IP-100,2013-04-03 10:02:00,
2013-04-03 06:07:00,28.7,14.0,29.78,WSW,247,12.4,18.7,53,0.00,,,0.00,Rainwise IP-100,2013-04-03 10:07:00,
2013-04-03 06:12:00,28.7,14.0,29.79,SSW,202,5.4,16.6,52,0.00,,,0.00,Rainwise IP-100,2013-04-03 10:12:00,
2013-04-03 06:17:00,28.7,14.0,29.79,WSW,247,9.3,14.0,52,0.00,,,0.00,Rainwise IP-100,2013-04-03 10:17:00,
2013-04-03 06:22:00,28.7,14.0,29.78,WSW,247,6.3,16.1,52,0.00,,,0.00,Rainwise IP-100,2013-04-03 10:22:00,
2013-04-03 06:27:00,28.6,14.0,29.80,WNW,292,5.4,25.6,52,0.00,,,0.00,Rainwise IP-100,2013-04-03 10:27:00,
2013-04-03 06:32:00,28.6,14.0,29.80,West,270,6.8,15.2,52,0.00,,,0.00,Rainwise IP-100,2013-04-03 10:32:00,
2013-04-03 06:37:00,28.7,14.0,29.80,WNW,292,8.4,17.7,51,0.00,,,0.00,Rainwise IP-100,2013-04-03 10:37:00,
2013-04-03 06:42:00,28.7,14.0,29.80,NNW,337,6.5,23.8,51,0.00,,,0.00,Rainwise IP-100,2013-04-03 10:42:00,
2013-04-03 06:47:00,28.7,14.0,29.80,WNW,292,4.2,14.9,51,0.00,,,0.00,Rainwise IP-100,2013-04-03 10:47:00,
2013-04-03 06:52:00,28.7,14.0,29.80,WNW,292,8.9,12.1,52,0.00,,,0.00,Rainwise IP-100,2013-04-03 10:52:00,
2013-04-03 06:57:00,28.7,14.0,29.80,WSW,247,5.6,15.9,51,0.00,,,0.00,Rainwise IP-100,2013-04-03 10:57:00,
2013-04-03 07:02:00,28.8,14.0,29.80,WSW,247,8.6,15.6,51,0.00,,,0.00,Rainwise IP-100,2013-04-03 11:02:00,
2013-04-03 07:07:00,28.8,14.0,29.81,WNW,292,11.9,21.7,51,0.00,,,0.00,Rainwise IP-100,2013-04-03 11:07:00,
2013-04-03 07:12:00,28.7,14.0,29.81,West,270,11.0,24.2,51,0.00,,,0.00,Rainwise IP-100,2013-04-03 11:12:00,
2013-04-03 07:17:00,28.7,14.0,29.81,WNW,292,5.8,19.4,51,0.00,,,0.00,Rainwise IP-100,2013-04-03 11:17:00,
2013-04-03 07:22:00,28.7,14.0,29.81,NW,315,10.5,22.2,51,0.00,,,0.00,Rainwise IP-100,2013-04-03 11:22:00,
2013-04-03 07:27:00,28.8,14.0,29.81,WNW,292,5.4,15.4,51,0.00,,,0.00,Rainwise IP-100,2013-04-03 11:27:00,
2013-04-03 07:32:00,28.9,14.0,29.81,WSW,247,7.9,14.2,51,0.00,,,0.00,Rainwise IP-100,2013-04-03 11:32:00,
2013-04-03 07:37:00,29.0,14.0,29.81,NNW,337,7.2,18.4,51,0.00,,,0.00,Rainwise IP-100,2013-04-03 11:37:00,
2013-04-03 07:42:00,29.1,14.0,29.81,WNW,292,13.5,20.8,50,0.00,,,0.00,Rainwise IP-100,2013-04-03 11:42:00,
2013-04-03 07:47:00,29.1,14.0,29.82,West,270,13.5,21.2,50,0.00,,,0.00,Rainwise IP-100,2013-04-03 11:47:00,
2013-04-03 07:52:00,29.1,14.0,29.82,WSW,247,5.4,18.0,50,0.00,,,0.00,Rainwise IP-100,2013-04-03 11:52:00,
2013-04-03 07:57:00,29.1,14.0,29.81,West,270,5.8,19.6,50,0.00,,,0.00,Rainwise IP-100,2013-04-03 11:57:00,
2013-04-03 08:02:00,29.3,14.0,29.82,SW,225,8.6,23.6,50,0.00,,,0.00,Rainwise IP-100,2013-04-03 12:02:00,
2013-04-03 08:07:00,29.4,14.0,29.81,WSW,247,4.7,16.6,50,0.00,,,0.00,Rainwise IP-100,2013-04-03 12:07:00,
2013-04-03 08:12:00,29.4,14.0,29.81,WNW,292,9.6,20.3,49,0.00,,,0.00,Rainwise IP-100,2013-04-03 12:12:00,
2013-04-03 08:17:00,29.4,14.0,29.80,WNW,292,11.4,22.9,48,0.00,,,0.00,Rainwise IP-100,2013-04-03 12:17:00,
2013-04-03 08:22:00,29.4,14.0,29.81,WNW,292,9.8,19.1,48,0.00,,,0.00,Rainwise IP-100,2013-04-03 12:22:00,
2013-04-03 08:27:00,29.5,14.0,29.80,WNW,292,6.1,19.1,49,0.00,,,0.00,Rainwise IP-100,2013-04-03 12:27:00,
2013-04-03 08:32:00,29.7,14.0,29.81,WSW,247,8.2,17.3,49,0.00,,,0.00,Rainwise IP-100,2013-04-03 12:32:00,
2013-04-03 08:37:00,29.7,14.0,29.81,WSW,247,11.9,24.9,48,0.00,,,0.00,Rainwise IP-100,2013-04-03 12:37:00,
2013-04-03 08:42:00,29.8,14.0,29.81,WSW,247,12.4,17.5,48,0.00,,,0.00,Rainwise IP-100,2013-04-03 12:42:00,
2013-04-03 08:47:00,29.8,14.0,29.81,WNW,292,7.5,18.4,47,0.00,,,0.00,Rainwise IP-100,2013-04-03 12:47:00,
2013-04-03 08:52:00,29.8,14.0,29.80,WNW,292,8.6,22.4,46,0.00,,,0.00,Rainwise IP-100,2013-04-03 12:52:00,
2013-04-03 08:57:00,30.0,14.0,29.81,SSW,202,11.4,16.3,46,0.00,,,0.00,Rainwise IP-100,2013-04-03 12:57:00,
2013-04-03 09:02:00,30.4,14.0,29.80,WSW,247,9.6,21.5,46,0.00,,,0.00,Rainwise IP-100,2013-04-03 13:02:00,
2013-04-03 09:07:00,30.8,14.0,29.81,West,270,8.9,11.4,45,0.00,,,0.00,Rainwise IP-100,2013-04-03 13:07:00,
2013-04-03 09:12:00,31.0,14.0,29.80,NNW,337,2.8,13.8,45,0.00,,,0.00,Rainwise IP-100,2013-04-03 13:12:00,
2013-04-03 09:17:00,31.1,11.0,29.81,WSW,247,4.2,16.3,44,0.00,,,0.00,Rainwise IP-100,2013-04-03 13:17:00,
2013-04-03 09:22:00,31.3,11.0,29.81,WNW,292,11.9,21.5,44,0.00,,,0.00,Rainwise IP-100,2013-04-03 13:22:00,
2013-04-03 09:27:00,31.6,14.0,29.80,WSW,247,3.3,18.2,43,0.00,,,0.00,Rainwise IP-100,2013-04-03 13:27:00,
2013-04-03 09:32:00,31.7,14.0,29.81,WSW,247,10.3,21.2,43,0.00,,,0.00,Rainwise IP-100,2013-04-03 13:32:00,
2013-04-03 09:37:00,31.8,14.0,29.80,WSW,247,19.6,20.8,43,0.00,,,0.00,Rainwise IP-100,2013-04-03 13:37:00,
2013-04-03 09:42:00,32.0,14.0,29.81,WNW,292,10.5,24.9,42,0.00,,,0.00,Rainwise IP-100,2013-04-03 13:42:00,
2013-04-03 09:47:00,32.0,14.0,29.80,WNW,292,13.8,19.1,42,0.00,,,0.00,Rainwise IP-100,2013-04-03 13:47:00,
2013-04-03 09:52:00,32.1,14.0,29.80,WSW,247,7.9,23.6,42,0.00,,,0.00,Rainwise IP-100,2013-04-03 13:52:00,
2013-04-03 09:57:00,32.4,11.0,29.80,WSW,247,14.5,22.6,41,0.00,,,0.00,Rainwise IP-100,2013-04-03 13:57:00,
2013-04-03 10:02:00,32.5,14.0,29.80,WNW,292,6.3,20.8,41,0.00,,,0.00,Rainwise IP-100,2013-04-03 14:02:00,
2013-04-03 10:07:00,32.7,14.0,29.80,NW,315,7.0,17.3,41,0.00,,,0.00,Rainwise IP-100,2013-04-03 14:07:00,
2013-04-03 10:12:00,32.8,14.0,29.80,WNW,292,8.9,23.3,41,0.00,,,0.00,Rainwise IP-100,2013-04-03 14:12:00,
2013-04-03 10:17:00,32.6,14.0,29.80,SW,225,4.0,15.2,41,0.00,,,0.00,Rainwise IP-100,2013-04-03 14:17:00,
2013-04-03 10:22:00,32.7,14.0,29.80,West,270,11.4,20.5,41,0.00,,,0.00,Rainwise IP-100,2013-04-03 14:22:00,
2013-04-03 10:27:00,33.0,14.0,29.80,WNW,292,7.0,20.3,40,0.00,,,0.00,Rainwise IP-100,2013-04-03 14:27:00,
2013-04-03 10:32:00,33.4,14.0,29.80,West,270,11.9,21.2,40,0.00,,,0.00,Rainwise IP-100,2013-04-03 14:32:00,
2013-04-03 10:37:00,33.3,14.0,29.80,WSW,247,10.7,21.0,40,0.00,,,0.00,Rainwise IP-100,2013-04-03 14:37:00,
2013-04-03 10:42:00,33.0,14.0,29.80,WNW,292,9.1,18.9,40,0.00,,,0.00,Rainwise IP-100,2013-04-03 14:42:00,
2013-04-03 10:47:00,32.7,14.0,29.79,WSW,247,11.4,20.1,40,0.00,,,0.00,Rainwise IP-100,2013-04-03 14:47:00,
2013-04-03 10:52:00,32.8,14.0,29.80,WSW,247,14.9,15.2,40,0.00,,,0.00,Rainwise IP-100,2013-04-03 14:52:00,
2013-04-03 10:57:00,32.9,14.0,29.80,WNW,292,6.8,22.4,40,0.00,,,0.00,Rainwise IP-100,2013-04-03 14:57:00,
2013-04-03 11:02:00,33.1,14.0,29.80,NW,315,8.4,18.9,40,0.00,,,0.00,Rainwise IP-100,2013-04-03 15:02:00,
2013-04-03 11:07:00,33.5,14.0,29.79,WNW,292,17.3,18.0,39,0.00,,,0.00,Rainwise IP-100,2013-04-03 15:07:00,
2013-04-03 11:12:00,33.7,14.0,29.79,NNW,337,8.6,18.2,39,0.00,,,0.00,Rainwise IP-100,2013-04-03 15:12:00,
2013-04-03 11:17:00,34.0,14.0,29.78,NW,315,8.9,19.1,39,0.00,,,0.00,Rainwise IP-100,2013-04-03 15:17:00,
2013-04-03 11:22:00,34.2,14.0,29.78,West,270,7.2,17.0,39,0.00,,,0.00,Rainwise IP-100,2013-04-03 15:22:00,
2013-04-03 11:27:00,34.0,14.0,29.78,WSW,247,7.7,13.3,39,0.00,,,0.00,Rainwise IP-100,2013-04-03 15:27:00,
2013-04-03 11:32:00,34.1,14.0,29.79,NNW,337,5.8,21.2,39,0.00,,,0.00,Rainwise IP-100,2013-04-03 15:32:00,
2013-04-03 11:37:00,34.4,14.0,29.79,WNW,292,12.6,19.1,39,0.00,,,0.00,Rainwise IP-100,2013-04-03 15:37:00,
2013-04-03 11:42:00,34.7,14.0,29.78,WNW,292,18.9,18.9,39,0.00,,,0.00,Rainwise IP-100,2013-04-03 15:42:00,
2013-04-03 11:47:00,34.9,14.0,29.78,NNW,337,21.0,22.4,38,0.00,,,0.00,Rainwise IP-100,2013-04-03 15:47:00,
2013-04-03 11:52:00,34.8,14.0,29.78,WNW,292,5.6,29.8,38,0.00,,,0.00,Rainwise IP-100,2013-04-03 15:52:00,
2013-04-03 11:57:00,34.9,14.0,29.78,WNW,292,8.9,16.6,39,0.00,,,0.00,Rainwise IP-100,2013-04-03 15:57:00,
2013-04-03 12:02:00,35.5,14.0,29.78,WNW,292,7.0,14.5,38,0.00,,,0.00,Rainwise IP-100,2013-04-03 16:02:00,
2013-04-03 12:07:00,35.9,14.0,29.78,WNW,292,3.3,18.0,38,0.00,,,0.00,Rainwise IP-100,2013-04-03 16:07:00,
2013-04-03 12:12:00,35.9,14.0,29.77,WNW,292,8.2,20.3,38,0.00,,,0.00,Rainwise IP-100,2013-04-03 16:12:00,
2013-04-03 12:17:00,35.9,14.0,29.78,NNW,337,7.5,21.5,38,0.00,,,0.00,Rainwise IP-100,2013-04-03 16:17:00,
2013-04-03 12:22:00,35.8,14.0,29.77,NNW,337,11.4,24.5,38,0.00,,,0.00,Rainwise IP-100,2013-04-03 16:22:00,
2013-04-03 12:27:00,35.7,14.0,29.77,NW,315,11.4,21.0,38,0.00,,,0.00,Rainwise IP-100,2013-04-03 16:27:00,
2013-04-03 12:32:00,35.9,14.0,29.77,WSW,247,8.9,22.4,38,0.00,,,0.00,Rainwise IP-100,2013-04-03 16:32:00,
2013-04-03 12:37:00,36.2,14.0,29.78,NNW,337,2.8,25.2,37,0.00,,,0.00,Rainwise IP-100,2013-04-03 16:37:00,
2013-04-03 12:42:00,36.3,14.0,29.78,WSW,247,6.3,18.4,37,0.00,,,0.00,Rainwise IP-100,2013-04-03 16:42:00,
2013-04-03 12:47:00,36.7,14.0,29.78,WSW,247,2.1,18.0,37,0.00,,,0.00,Rainwise IP-100,2013-04-03 16:47:00,
2013-04-03 12:52:00,36.8,14.0,29.77,WNW,292,9.1,20.8,38,0.00,,,0.00,Rainwise IP-100,2013-04-03 16:52:00,
2013-04-03 12:57:00,36.5,14.0,29.78,WNW,292,15.2,21.7,38,0.00,,,0.00,Rainwise IP-100,2013-04-03 16:57:00,
2013-04-03 13:02:00,36.4,14.0,29.78,WSW,247,4.9,18.9,37,0.00,,,0.00,Rainwise IP-100,2013-04-03 17:02:00,
2013-04-03 13:07:00,36.5,14.0,29.77,WSW,247,5.4,23.1,37,0.00,,,0.00,Rainwise IP-100,2013-04-03 17:07:00,
2013-04-03 13:12:00,36.7,14.0,29.78,WSW,247,10.7,18.0,38,0.00,,,0.00,Rainwise IP-100,2013-04-03 17:12:00,
2013-04-03 13:17:00,37.0,14.0,29.78,WNW,292,7.5,19.1,38,0.00,,,0.00,Rainwise IP-100,2013-04-03 17:17:00,
2013-04-03 13:22:00,37.1,14.0,29.78,NW,315,9.1,21.7,38,0.00,,,0.00,Rainwise IP-100,2013-04-03 17:22:00,
2013-04-03 13:27:00,37.1,14.0,29.78,NW,315,7.5,22.2,37,0.00,,,0.00,Rainwise IP-100,2013-04-03 17:27:00,
2013-04-03 13:32:00,37.3,14.0,29.78,SSW,202,16.8,18.4,37,0.00,,,0.00,Rainwise IP-100,2013-04-03 17:32:00,
2013-04-03 13:37:00,37.6,16.0,29.79,NNW,337,8.2,25.2,38,0.00,,,0.00,Rainwise IP-100,2013-04-03 17:37:00,
2013-04-03 13:42:00,37.7,16.0,29.78,NNW,337,7.5,21.7,38,0.00,,,0.00,Rainwise IP-100,2013-04-03 17:42:00,
2013-04-03 13:47:00,37.6,16.0,29.78,WNW,292,4.7,23.1,38,0.00,,,0.00,Rainwise IP-100,2013-04-03 17:47:00,
2013-04-03 13:52:00,37.5,16.0,29.79,West,270,2.6,17.5,38,0.00,,,0.00,Rainwise IP-100,2013-04-03 17:52:00,
2013-04-03 13:57:00,37.9,16.0,29.77,WNW,292,9.8,20.5,38,0.00,,,0.00,Rainwise IP-100,2013-04-03 17:57:00,
2013-04-03 14:02:00,38.3,16.0,29.79,NW,315,10.3,17.5,38,0.00,,,0.00,Rainwise IP-100,2013-04-03 18:02:00,
2013-04-03 14:07:00,38.6,16.0,29.78,WNW,292,9.6,20.8,37,0.00,,,0.00,Rainwise IP-100,2013-04-03 18:07:00,
2013-04-03 14:12:00,38.4,16.0,29.77,NNW,337,14.0,22.4,37,0.00,,,0.00,Rainwise IP-100,2013-04-03 18:12:00,
2013-04-03 14:17:00,38.0,16.0,29.79,WNW,292,14.0,22.4,37,0.00,,,0.00,Rainwise IP-100,2013-04-03 18:17:00,
2013-04-03 14:22:00,38.0,16.0,29.78,WSW,247,7.9,18.9,38,0.00,,,0.00,Rainwise IP-100,2013-04-03 18:22:00,
2013-04-03 14:27:00,38.2,16.0,29.78,WNW,292,14.7,20.1,37,0.00,,,0.00,Rainwise IP-100,2013-04-03 18:27:00,
2013-04-03 14:32:00,38.3,16.0,29.78,NW,315,8.9,21.7,37,0.00,,,0.00,Rainwise IP-100,2013-04-03 18:32:00,
2013-04-03 14:37:00,38.6,16.0,29.78,WNW,292,8.2,14.5,37,0.00,,,0.00,Rainwise IP-100,2013-04-03 18:37:00,
2013-04-03 14:42:00,39.2,16.0,29.79,West,270,6.8,17.3,37,0.00,,,0.00,Rainwise IP-100,2013-04-03 18:42:00,
2013-04-03 14:47:00,39.1,16.0,29.79,NNW,337,8.4,25.6,37,0.00,,,0.00,Rainwise IP-100,2013-04-03 18:47:00,
2013-04-03 14:52:00,38.5,16.0,29.79,NW,315,9.1,28.0,37,0.00,,,0.00,Rainwise IP-100,2013-04-03 18:52:00,
2013-04-03 14:57:00,38.3,16.0,29.78,WNW,292,9.3,17.3,38,0.00,,,0.00,Rainwise IP-100,2013-04-03 18:57:00,
2013-04-03 15:02:00,39.0,16.0,29.79,West,270,5.8,15.6,38,0.00,,,0.00,Rainwise IP-100,2013-04-03 19:02:00,
2013-04-03 15:07:00,39.8,18.0,29.78,WNW,292,13.5,19.4,38,0.00,,,0.00,Rainwise IP-100,2013-04-03 19:07:00,
2013-04-03 15:12:00,39.5,18.0,29.78,WSW,247,17.5,21.5,38,0.00,,,0.00,Rainwise IP-100,2013-04-03 19:12:00,
2013-04-03 15:17:00,38.8,16.0,29.78,WNW,292,4.7,21.0,38,0.00,,,0.00,Rainwise IP-100,2013-04-03 19:17:00,
2013-04-03 15:23:00,38.7,16.0,29.78,NNW,337,6.3,17.7,38,0.00,,,0.00,Rainwise IP-100,2013-04-03 19:23:00,
2013-04-03 15:28:00,39.3,16.0,29.78,NNW,337,14.0,16.3,39,0.00,,,0.00,Rainwise IP-100,2013-04-03 19:28:00,
2013-04-03 15:33:00,39.3,16.0,29.78,NNW,337,10.3,21.0,39,0.00,,,0.00,Rainwise IP-100,2013-04-03 19:33:00,
2013-04-03 15:38:00,39.1,16.0,29.77,NNW,337,18.0,24.0,39,0.00,,,0.00,Rainwise IP-100,2013-04-03 19:38:00,
2013-04-03 15:43:00,38.8,16.0,29.79,West,270,7.0,29.4,39,0.00,,,0.00,Rainwise IP-100,2013-04-03 19:43:00,
2013-04-03 15:48:00,38.9,16.0,29.79,WNW,292,8.4,24.2,39,0.00,,,0.00,Rainwise IP-100,2013-04-03 19:48:00,
2013-04-03 15:53:00,39.0,16.0,29.80,NNW,337,15.6,26.8,39,0.00,,,0.00,Rainwise IP-100,2013-04-03 19:53:00,
2013-04-03 15:58:00,38.7,16.0,29.80,WNW,292,9.6,23.8,39,0.00,,,0.00,Rainwise IP-100,2013-04-03 19:58:00,
2013-04-03 16:03:00,38.7,16.0,29.80,WNW,292,11.4,29.1,39,0.00,,,0.00,Rainwise IP-100,2013-04-03 20:03:00,
2013-04-03 16:08:00,38.6,16.0,29.79,WNW,292,11.7,19.6,39,0.00,,,0.00,Rainwise IP-100,2013-04-03 20:08:00,
2013-04-03 16:13:00,38.5,16.0,29.80,WNW,292,5.1,25.2,39,0.00,,,0.00,Rainwise IP-100,2013-04-03 20:13:00,
2013-04-03 16:18:00,38.5,16.0,29.80,West,270,6.3,18.4,39,0.00,,,0.00,Rainwise IP-100,2013-04-03 20:18:00,
2013-04-03 16:23:00,38.6,16.0,29.80,SSW,202,2.6,26.1,39,0.00,,,0.00,Rainwise IP-100,2013-04-03 20:23:00,
2013-04-03 16:28:00,39.0,16.0,29.79,NW,315,18.0,18.0,39,0.00,,,0.00,Rainwise IP-100,2013-04-03 20:28:00,
2013-04-03 16:33:00,39.1,16.0,29.80,WNW,292,3.7,22.4,39,0.00,,,0.00,Rainwise IP-100,2013-04-03 20:33:00,
2013-04-03 16:38:00,38.9,18.0,29.78,WNW,292,13.1,20.1,40,0.00,,,0.00,Rainwise IP-100,2013-04-03 20:38:00,
2013-04-03 16:43:00,38.7,18.0,29.80,West,270,4.2,16.3,40,0.00,,,0.00,Rainwise IP-100,2013-04-03 20:43:00,
2013-04-03 16:48:00,38.8,18.0,29.80,WNW,292,16.1,23.6,40,0.00,,,0.00,Rainwise IP-100,2013-04-03 20:48:00,
2013-04-03 16:53:00,38.8,18.0,29.81,WNW,292,11.2,26.1,40,0.00,,,0.00,Rainwise IP-100,2013-04-03 20:53:00,
2013-04-03 16:58:00,38.6,18.0,29.80,WNW,292,6.8,21.2,40,0.00,,,0.00,Rainwise IP-100,2013-04-03 20:58:00,
2013-04-03 17:03:00,38.4,16.0,29.81,NW,315,8.6,23.3,40,0.00,,,0.00,Rainwise IP-100,2013-04-03 21:03:00,
2013-04-03 17:08:00,38.3,16.0,29.81,SW,225,8.2,24.2,40,0.00,,,0.00,Rainwise IP-100,2013-04-03 21:08:00,
2013-04-03 17:13:00,38.3,16.0,29.81,WNW,292,10.5,20.8,41,0.00,,,0.00,Rainwise IP-100,2013-04-03 21:13:00,
2013-04-03 17:18:00,38.3,16.0,29.82,West,270,10.3,22.4,41,0.00,,,0.00,Rainwise IP-100,2013-04-03 21:18:00,
2013-04-03 17:23:00,38.2,16.0,29.81,NW,315,9.1,23.8,41,0.00,,,0.00,Rainwise IP-100,2013-04-03 21:23:00,
2013-04-03 17:28:00,38.0,16.0,29.81,WNW,292,6.3,32.4,41,0.00,,,0.00,Rainwise IP-100,2013-04-03 21:28:00,
2013-04-03 17:33:00,38.0,18.0,29.81,West,270,5.8,14.7,42,0.00,,,0.00,Rainwise IP-100,2013-04-03 21:33:00,
2013-04-03 17:38:00,38.0,18.0,29.82,WNW,292,5.1,22.6,42,0.00,,,0.00,Rainwise IP-100,2013-04-03 21:38:00,
2013-04-03 17:43:00,37.7,18.0,29.82,NW,315,12.6,27.0,42,0.00,,,0.00,Rainwise IP-100,2013-04-03 21:43:00,
2013-04-03 17:48:00,37.5,18.0,29.83,NNW,337,7.0,25.6,42,0.00,,,0.00,Rainwise IP-100,2013-04-03 21:48:00,
2013-04-03 17:53:00,37.4,16.0,29.82,NNW,337,11.7,24.5,43,0.00,,,0.00,Rainwise IP-100,2013-04-03 21:53:00,
2013-04-03 17:58:00,37.3,16.0,29.83,NW,315,6.5,20.8,43,0.00,,,0.00,Rainwise IP-100,2013-04-03 21:58:00,
2013-04-03 18:03:00,37.2,18.0,29.83,NNE,22,4.7,19.4,44,0.00,,,0.00,Rainwise IP-100,2013-04-03 22:03:00,
2013-04-03 18:08:00,37.1,18.0,29.83,NW,315,8.6,22.4,44,0.00,,,0.00,Rainwise IP-100,2013-04-03 22:08:00,
2013-04-03 18:13:00,36.9,18.0,29.83,NW,315,14.7,22.4,44,0.00,,,0.00,Rainwise IP-100,2013-04-03 22:13:00,
2013-04-03 18:18:00,36.8,18.0,29.84,WNW,292,3.7,19.6,44,0.00,,,0.00,Rainwise IP-100,2013-04-03 22:18:00,
2013-04-03 18:23:00,36.7,18.0,29.84,WNW,292,11.9,17.7,44,0.00,,,0.00,Rainwise IP-100,2013-04-03 22:23:00,
2013-04-03 18:28:00,36.4,16.0,29.84,WNW,292,7.9,20.1,44,0.00,,,0.00,Rainwise IP-100,2013-04-03 22:28:00,
2013-04-03 18:33:00,36.2,16.0,29.84,WNW,292,5.6,25.9,45,0.00,,,0.00,Rainwise IP-100,2013-04-03 22:33:00,
2013-04-03 18:38:00,36.0,18.0,29.85,NW,315,6.1,27.5,46,0.00,,,0.00,Rainwise IP-100,2013-04-03 22:38:00,
2013-04-03 18:43:00,35.7,18.0,29.85,NW,315,13.3,26.6,46,0.00,,,0.00,Rainwise IP-100,2013-04-03 22:43:00,
2013-04-03 18:48:00,35.5,18.0,29.85,NNW,337,10.5,22.9,47,0.00,,,0.00,Rainwise IP-100,2013-04-03 22:48:00,
2013-04-03 18:53:00,35.3,16.0,29.84,NNW,337,11.7,24.9,47,0.00,,,0.00,Rainwise IP-100,2013-04-03 22:53:00,
2013-04-03 18:58:00,35.1,16.0,29.85,WNW,292,18.0,20.8,47,0.00,,,0.00,Rainwise IP-100,2013-04-03 22:58:00,
2013-04-03 19:03:00,34.9,16.0,29.86,WNW,292,10.7,18.0,47,0.00,,,0.00,Rainwise IP-100,2013-04-03 23:03:00,
2013-04-03 19:08:00,34.8,18.0,29.87,WNW,292,6.8,16.1,48,0.00,,,0.00,Rainwise IP-100,2013-04-03 23:08:00,
2013-04-03 19:13:00,34.6,18.0,29.87,WNW,292,10.5,17.3,49,0.00,,,0.00,Rainwise IP-100,2013-04-03 23:13:00,
2013-04-03 19:18:00,34.6,18.0,29.87,WNW,292,11.2,19.1,49,0.00,,,0.00,Rainwise IP-100,2013-04-03 23:18:00,
2013-04-03 19:23:00,34.5,18.0,29.87,NW,315,8.9,18.9,49,0.00,,,0.00,Rainwise IP-100,2013-04-03 23:23:00,
2013-04-03 19:28:00,34.3,18.0,29.88,NNW,337,18.4,18.7,49,0.00,,,0.00,Rainwise IP-100,2013-04-03 23:28:00,
2013-04-03 19:33:00,34.2,18.0,29.88,NW,315,17.7,24.0,49,0.00,,,0.00,Rainwise IP-100,2013-04-03 23:33:00,
2013-04-03 19:38:00,34.1,18.0,29.88,NW,315,15.6,22.4,49,0.00,,,0.00,Rainwise IP-100,2013-04-03 23:38:00,
2013-04-03 19:43:00,34.0,18.0,29.88,West,270,7.5,18.7,49,0.00,,,0.00,Rainwise IP-100,2013-04-03 23:43:00,
2013-04-03 19:48:00,33.9,18.0,29.88,NW,315,7.7,21.7,49,0.00,,,0.00,Rainwise IP-100,2013-04-03 23:48:00,
2013-04-03 19:53:00,33.8,18.0,29.89,NNW,337,8.6,20.8,50,0.00,,,0.00,Rainwise IP-100,2013-04-03 23:53:00,
2013-04-03 19:58:00,33.7,18.0,29.89,WNW,292,4.7,15.6,50,0.00,,,0.00,Rainwise IP-100,2013-04-03 23:58:00,
2013-04-03 20:03:00,33.6,18.0,29.89,WNW,292,8.6,13.3,51,0.00,,,0.00,Rainwise IP-100,2013-04-04 00:03:00,
2013-04-03 20:08:00,33.4,18.0,29.90,SW,225,4.0,11.2,52,0.00,,,0.00,Rainwise IP-100,2013-04-04 00:08:00,
2013-04-03 20:13:00,33.3,18.0,29.90,WNW,292,6.3,13.5,52,0.00,,,0.00,Rainwise IP-100,2013-04-04 00:13:00,
2013-04-03 20:18:00,33.2,18.0,29.91,WNW,292,3.0,12.1,53,0.00,,,0.00,Rainwise IP-100,2013-04-04 00:18:00,
2013-04-03 20:23:00,33.0,18.0,29.91,WNW,292,6.8,10.7,53,0.00,,,0.00,Rainwise IP-100,2013-04-04 00:23:00,
2013-04-03 20:28:00,32.9,18.0,29.91,WSW,247,5.6,11.0,53,0.00,,,0.00,Rainwise IP-100,2013-04-04 00:28:00,
2013-04-03 20:33:00,32.9,18.0,29.91,WNW,292,5.8,11.7,53,0.00,,,0.00,Rainwise IP-100,2013-04-04 00:33:00,
2013-04-03 20:38:00,32.7,18.0,29.91,NNW,337,4.0,14.2,54,0.00,,,0.00,Rainwise IP-100,2013-04-04 00:38:00,
2013-04-03 20:43:00,32.6,18.0,29.92,NNW,337,7.7,14.2,53,0.00,,,0.00,Rainwise IP-100,2013-04-04 00:43:00,
2013-04-03 20:48:00,32.6,18.0,29.92,NW,315,4.9,15.6,53,0.00,,,0.00,Rainwise IP-100,2013-04-04 00:48:00,
2013-04-03 20:53:00,32.6,18.0,29.92,WNW,292,4.9,13.3,54,0.00,,,0.00,Rainwise IP-100,2013-04-04 00:53:00,
2013-04-03 20:58:00,32.5,18.0,29.92,NNW,337,10.0,13.3,54,0.00,,,0.00,Rainwise IP-100,2013-04-04 00:58:00,
2013-04-03 21:03:00,32.4,18.0,29.92,WNW,292,5.6,11.7,54,0.00,,,0.00,Rainwise IP-100,2013-04-04 01:03:00,
2013-04-03 21:08:00,32.3,18.0,29.93,WNW,292,6.5,12.4,54,0.00,,,0.00,Rainwise IP-100,2013-04-04 01:08:00,
2013-04-03 21:13:00,32.2,18.0,29.93,WNW,292,4.0,14.0,54,0.00,,,0.00,Rainwise IP-100,2013-04-04 01:13:00,
2013-04-03 21:18:00,32.1,18.0,29.93,WNW,292,4.7,18.4,54,0.00,,,0.00,Rainwise IP-100,2013-04-04 01:18:00,
2013-04-03 21:23:00,32.1,18.0,29.94,NNW,337,4.7,13.5,54,0.00,,,0.00,Rainwise IP-100,2013-04-04 01:23:00,
2013-04-03 21:28:00,32.1,18.0,29.94,WNW,292,6.5,18.9,54,0.00,,,0.00,Rainwise IP-100,2013-04-04 01:28:00,
2013-04-03 21:33:00,32.0,18.0,29.94,WNW,292,4.2,14.0,55,0.00,,,0.00,Rainwise IP-100,2013-04-04 01:33:00,
2013-04-03 21:39:00,31.9,18.0,29.94,NNW,337,6.8,11.9,55,0.00,,,0.00,Rainwise IP-100,2013-04-04 01:39:00,
2013-04-03 21:44:00,31.9,18.0,29.95,NNW,337,5.4,9.8,55,0.00,,,0.00,Rainwise IP-100,2013-04-04 01:44:00,
2013-04-03 21:49:00,31.9,18.0,29.95,NW,315,4.2,13.5,55,0.00,,,0.00,Rainwise IP-100,2013-04-04 01:49:00,
2013-04-03 21:54:00,31.8,18.0,29.95,WNW,292,5.6,14.0,55,0.00,,,0.00,Rainwise IP-100,2013-04-04 01:54:00,
2013-04-03 21:59:00,31.8,18.0,29.95,NW,315,5.8,13.8,56,0.00,,,0.00,Rainwise IP-100,2013-04-04 01:59:00,
2013-04-03 22:04:00,31.8,18.0,29.95,WNW,292,5.1,14.9,56,0.00,,,0.00,Rainwise IP-100,2013-04-04 02:04:00,
2013-04-03 22:09:00,31.7,18.0,29.95,WNW,292,2.8,15.2,56,0.00,,,0.00,Rainwise IP-100,2013-04-04 02:09:00,
2013-04-03 22:14:00,31.6,18.0,29.96,SW,225,3.5,10.3,56,0.00,,,0.00,Rainwise IP-100,2013-04-04 02:14:00,
2013-04-03 22:19:00,31.5,18.0,29.96,NNW,337,5.4,17.5,56,0.00,,,0.00,Rainwise IP-100,2013-04-04 02:19:00,
2013-04-03 22:24:00,31.5,18.0,29.96,NNW,337,8.9,11.0,56,0.00,,,0.00,Rainwise IP-100,2013-04-04 02:24:00,
2013-04-03 22:29:00,31.4,18.0,29.96,WNW,292,5.4,13.5,57,0.00,,,0.00,Rainwise IP-100,2013-04-04 02:29:00,
2013-04-03 22:34:00,31.3,18.0,29.96,WNW,292,7.5,13.1,57,0.00,,,0.00,Rainwise IP-100,2013-04-04 02:34:00,
2013-04-03 22:39:00,31.3,18.0,29.96,WNW,292,4.7,14.9,57,0.00,,,0.00,Rainwise IP-100,2013-04-04 02:39:00,
2013-04-03 22:44:00,31.3,18.0,29.96,WNW,292,10.0,10.0,57,0.00,,,0.00,Rainwise IP-100,2013-04-04 02:44:00,
2013-04-03 22:49:00,31.2,18.0,29.96,WNW,292,2.8,12.1,57,0.00,,,0.00,Rainwise IP-100,2013-04-04 02:49:00,
2013-04-03 22:54:00,31.2,18.0,29.96,WNW,292,2.8,15.4,57,0.00,,,0.00,Rainwise IP-100,2013-04-04 02:54:00,
2013-04-03 22:59:00,31.2,18.0,29.96,WNW,292,8.2,11.2,57,0.00,,,0.00,Rainwise IP-100,2013-04-04 02:59:00,
2013-04-03 23:04:00,31.2,18.0,29.96,NW,315,14.0,14.0,57,0.00,,,0.00,Rainwise IP-100,2013-04-04 03:04:00,
2013-04-03 23:09:00,31.1,18.0,29.96,WNW,292,5.6,15.2,57,0.00,,,0.00,Rainwise IP-100,2013-04-04 03:09:00,
2013-04-03 23:14:00,31.1,18.0,29.96,NNW,337,6.1,13.3,57,0.00,,,0.00,Rainwise IP-100,2013-04-04 03:14:00,
2013-04-03 23:19:00,31.1,18.0,29.96,NW,315,4.7,17.5,57,0.00,,,0.00,Rainwise IP-100,2013-04-04 03:19:00,
2013-04-03 23:24:00,31.1,18.0,29.96,WNW,292,5.8,14.5,58,0.00,,,0.00,Rainwise IP-100,2013-04-04 03:24:00,
2013-04-03 23:29:00,31.1,18.0,29.97,WNW,292,6.5,13.5,58,0.00,,,0.00,Rainwise IP-100,2013-04-04 03:29:00,
2013-04-03 23:34:00,31.1,18.0,29.96,West,270,6.3,15.9,58,0.00,,,0.00,Rainwise IP-100,2013-04-04 03:34:00,
2013-04-03 23:39:00,31.2,18.0,29.96,WNW,292,9.8,16.8,58,0.00,,,0.00,Rainwise IP-100,2013-04-04 03:39:00,
2013-04-03 23:44:00,31.2,18.0,29.95,NNW,337,7.9,13.8,58,0.00,,,0.00,Rainwise IP-100,2013-04-04 03:44:00,
2013-04-03 23:49:00,31.1,18.0,29.97,NNE,22,1.6,17.5,58,0.00,,,0.00,Rainwise IP-100,2013-04-04 03:49:00,
2013-04-03 23:54:00,31.1,18.0,29.97,NNW,337,4.2,12.6,58,0.00,,,0.00,Rainwise IP-100,2013-04-04 03:54:00,
2013-04-03 23:59:00,31.1,18.0,29.97,WNW,292,5.8,15.6,58,0.00,,,0.00,Rainwise IP-100,2013-04-04 03:59:00,